sensor_id;sensor_type;location;lat;lon;timestamp;P1;durP1;ratioP1;P2;durP2;ratioP2
21239;SDS011;10778;48.962;9.018;2023-07-02T00:01:47;5.90;;;4.63;;
21239;SDS011;10778;48.962;9.018;2023-07-02T00:04:14;4.88;;;4.32;;
21239;SDS011;10778;48.962;9.018;2023-07-02T00:06:42;5.88;;;4.35;;
21239;SDS011;10778;48.962;9.018;2023-07-02T00:09:09;6.15;;;4.65;;
21239;SDS011;10778;48.962;9.018;2023-07-02T00:11:37;6.30;;;4.47;;
21239;SDS011;10778;48.962;9.018;2023-07-02T00:14:05;7.65;;;4.22;;
21239;SDS011;10778;48.962;9.018;2023-07-02T00:16:31;6.85;;;4.45;;
21239;SDS011;10778;48.962;9.018;2023-07-02T00:18:58;5.53;;;4.50;;
21239;SDS011;10778;48.962;9.018;2023-07-02T00:21:26;8.00;;;4.38;;
21239;SDS011;10778;48.962;9.018;2023-07-02T00:23:54;5.35;;;4.45;;
21239;SDS011;10778;48.962;9.018;2023-07-02T00:26:23;5.75;;;4.50;;
21239;SDS011;10778;48.962;9.018;2023-07-02T00:28:50;6.70;;;4.43;;
21239;SDS011;10778;48.962;9.018;2023-07-02T00:31:17;5.32;;;4.38;;
21239;SDS011;10778;48.962;9.018;2023-07-02T00:33:43;5.07;;;4.18;;
21239;SDS011;10778;48.962;9.018;2023-07-02T00:36:09;5.07;;;4.28;;
21239;SDS011;10778;48.962;9.018;2023-07-02T00:38:40;5.28;;;4.22;;
21239;SDS011;10778;48.962;9.018;2023-07-02T00:41:10;6.07;;;4.22;;
21239;SDS011;10778;48.962;9.018;2023-07-02T00:43:37;6.90;;;4.13;;
21239;SDS011;10778;48.962;9.018;2023-07-02T00:46:19;5.03;;;4.25;;
21239;SDS011;10778;48.962;9.018;2023-07-02T00:48:46;6.38;;;4.72;;
21239;SDS011;10778;48.962;9.018;2023-07-02T00:51:17;5.30;;;4.40;;
21239;SDS011;10778;48.962;9.018;2023-07-02T00:53:45;5.82;;;4.18;;
21239;SDS011;10778;48.962;9.018;2023-07-02T00:56:12;6.55;;;4.78;;
21239;SDS011;10778;48.962;9.018;2023-07-02T00:58:40;4.80;;;4.13;;
21239;SDS011;10778;48.962;9.018;2023-07-02T01:01:16;7.38;;;4.40;;
21239;SDS011;10778;48.962;9.018;2023-07-02T01:06:38;5.63;;;4.28;;
21239;SDS011;10778;48.962;9.018;2023-07-02T01:09:07;5.43;;;4.30;;
21239;SDS011;10778;48.962;9.018;2023-07-02T01:11:46;6.78;;;4.28;;
21239;SDS011;10778;48.962;9.018;2023-07-02T01:14:26;6.55;;;4.38;;
21239;SDS011;10778;48.962;9.018;2023-07-02T01:16:54;6.13;;;4.00;;
21239;SDS011;10778;48.962;9.018;2023-07-02T01:22:07;5.80;;;4.18;;
21239;SDS011;10778;48.962;9.018;2023-07-02T01:24:41;3.92;;;3.53;;
21239;SDS011;10778;48.962;9.018;2023-07-02T01:27:07;4.53;;;3.47;;
21239;SDS011;10778;48.962;9.018;2023-07-02T01:29:33;7.85;;;4.38;;
21239;SDS011;10778;48.962;9.018;2023-07-02T01:32:02;4.40;;;3.95;;
21239;SDS011;10778;48.962;9.018;2023-07-02T01:34:28;4.72;;;4.00;;
21239;SDS011;10778;48.962;9.018;2023-07-02T01:36:54;5.47;;;4.40;;
21239;SDS011;10778;48.962;9.018;2023-07-02T01:39:20;5.80;;;3.92;;
21239;SDS011;10778;48.962;9.018;2023-07-02T01:41:50;6.72;;;4.28;;
21239;SDS011;10778;48.962;9.018;2023-07-02T01:44:17;6.72;;;4.40;;
21239;SDS011;10778;48.962;9.018;2023-07-02T01:46:44;6.93;;;4.70;;
21239;SDS011;10778;48.962;9.018;2023-07-02T01:49:20;6.63;;;4.18;;
21239;SDS011;10778;48.962;9.018;2023-07-02T01:51:49;4.38;;;3.97;;
21239;SDS011;10778;48.962;9.018;2023-07-02T01:54:16;6.55;;;4.05;;
21239;SDS011;10778;48.962;9.018;2023-07-02T01:56:42;6.05;;;3.85;;
21239;SDS011;10778;48.962;9.018;2023-07-02T01:59:09;5.88;;;3.97;;
21239;SDS011;10778;48.962;9.018;2023-07-02T02:01:35;6.32;;;3.97;;
21239;SDS011;10778;48.962;9.018;2023-07-02T02:04:01;4.13;;;3.70;;
21239;SDS011;10778;48.962;9.018;2023-07-02T02:06:26;7.20;;;3.88;;
21239;SDS011;10778;48.962;9.018;2023-07-02T02:08:52;7.75;;;3.97;;
21239;SDS011;10778;48.962;9.018;2023-07-02T02:11:18;5.93;;;3.55;;
21239;SDS011;10778;48.962;9.018;2023-07-02T02:13:45;4.88;;;3.80;;
21239;SDS011;10778;48.962;9.018;2023-07-02T02:16:11;6.15;;;4.38;;
21239;SDS011;10778;48.962;9.018;2023-07-02T02:18:37;5.70;;;4.00;;
21239;SDS011;10778;48.962;9.018;2023-07-02T02:21:03;4.68;;;3.67;;
21239;SDS011;10778;48.962;9.018;2023-07-02T02:23:29;5.65;;;3.92;;
21239;SDS011;10778;48.962;9.018;2023-07-02T02:25:55;6.00;;;4.35;;
21239;SDS011;10778;48.962;9.018;2023-07-02T02:28:21;6.63;;;4.28;;
21239;SDS011;10778;48.962;9.018;2023-07-02T02:30:47;5.90;;;4.28;;
21239;SDS011;10778;48.962;9.018;2023-07-02T02:33:13;6.30;;;4.13;;
21239;SDS011;10778;48.962;9.018;2023-07-02T02:35:39;6.63;;;4.32;;
21239;SDS011;10778;48.962;9.018;2023-07-02T02:38:05;7.38;;;4.55;;
21239;SDS011;10778;48.962;9.018;2023-07-02T02:40:31;11.13;;;4.68;;
21239;SDS011;10778;48.962;9.018;2023-07-02T02:42:57;8.00;;;4.07;;
21239;SDS011;10778;48.962;9.018;2023-07-02T02:45:24;9.98;;;4.43;;
21239;SDS011;10778;48.962;9.018;2023-07-02T02:47:49;8.07;;;4.47;;
21239;SDS011;10778;48.962;9.018;2023-07-02T02:50:16;8.02;;;4.15;;
21239;SDS011;10778;48.962;9.018;2023-07-02T02:52:41;7.72;;;4.53;;
21239;SDS011;10778;48.962;9.018;2023-07-02T02:55:08;10.10;;;4.60;;
21239;SDS011;10778;48.962;9.018;2023-07-02T02:57:38;8.98;;;4.68;;
21239;SDS011;10778;48.962;9.018;2023-07-02T03:00:04;10.50;;;4.47;;
21239;SDS011;10778;48.962;9.018;2023-07-02T03:02:30;8.52;;;4.50;;
21239;SDS011;10778;48.962;9.018;2023-07-02T03:04:56;9.80;;;4.85;;
21239;SDS011;10778;48.962;9.018;2023-07-02T03:07:31;6.65;;;4.13;;
21239;SDS011;10778;48.962;9.018;2023-07-02T03:09:57;8.68;;;4.50;;
21239;SDS011;10778;48.962;9.018;2023-07-02T03:12:25;8.93;;;4.32;;
21239;SDS011;10778;48.962;9.018;2023-07-02T03:14:51;10.23;;;4.68;;
21239;SDS011;10778;48.962;9.018;2023-07-02T03:17:20;8.05;;;4.72;;
21239;SDS011;10778;48.962;9.018;2023-07-02T03:19:46;8.77;;;4.47;;
21239;SDS011;10778;48.962;9.018;2023-07-02T03:22:13;9.68;;;4.75;;
21239;SDS011;10778;48.962;9.018;2023-07-02T03:24:39;10.35;;;5.30;;
21239;SDS011;10778;48.962;9.018;2023-07-02T03:27:05;11.27;;;5.07;;
21239;SDS011;10778;48.962;9.018;2023-07-02T03:29:31;11.07;;;5.45;;
21239;SDS011;10778;48.962;9.018;2023-07-02T03:31:59;15.45;;;6.15;;
21239;SDS011;10778;48.962;9.018;2023-07-02T03:34:25;11.23;;;6.20;;
21239;SDS011;10778;48.962;9.018;2023-07-02T03:36:51;12.38;;;6.57;;
21239;SDS011;10778;48.962;9.018;2023-07-02T03:39:17;14.73;;;6.20;;
21239;SDS011;10778;48.962;9.018;2023-07-02T03:41:43;11.13;;;6.45;;
21239;SDS011;10778;48.962;9.018;2023-07-02T03:44:10;11.65;;;6.57;;
21239;SDS011;10778;48.962;9.018;2023-07-02T03:46:36;14.93;;;6.80;;
21239;SDS011;10778;48.962;9.018;2023-07-02T03:49:02;16.85;;;6.43;;
21239;SDS011;10778;48.962;9.018;2023-07-02T03:51:29;14.80;;;6.20;;
21239;SDS011;10778;48.962;9.018;2023-07-02T03:53:55;14.40;;;6.60;;
21239;SDS011;10778;48.962;9.018;2023-07-02T03:56:21;11.75;;;6.53;;
21239;SDS011;10778;48.962;9.018;2023-07-02T03:58:47;13.32;;;6.55;;
21239;SDS011;10778;48.962;9.018;2023-07-02T04:01:13;13.00;;;6.15;;
21239;SDS011;10778;48.962;9.018;2023-07-02T04:03:41;12.13;;;6.40;;
21239;SDS011;10778;48.962;9.018;2023-07-02T04:06:13;12.23;;;6.50;;
21239;SDS011;10778;48.962;9.018;2023-07-02T04:08:39;11.98;;;6.45;;
21239;SDS011;10778;48.962;9.018;2023-07-02T04:11:05;13.38;;;6.35;;
21239;SDS011;10778;48.962;9.018;2023-07-02T04:13:31;11.85;;;6.45;;
21239;SDS011;10778;48.962;9.018;2023-07-02T04:15:57;13.82;;;6.57;;
21239;SDS011;10778;48.962;9.018;2023-07-02T04:18:23;10.65;;;6.10;;
21239;SDS011;10778;48.962;9.018;2023-07-02T04:20:49;14.52;;;6.75;;
21239;SDS011;10778;48.962;9.018;2023-07-02T04:23:15;13.63;;;5.80;;
21239;SDS011;10778;48.962;9.018;2023-07-02T04:25:41;9.27;;;5.63;;
21239;SDS011;10778;48.962;9.018;2023-07-02T04:28:08;10.07;;;5.55;;
21239;SDS011;10778;48.962;9.018;2023-07-02T04:30:34;10.32;;;5.00;;
21239;SDS011;10778;48.962;9.018;2023-07-02T04:33:00;11.98;;;5.55;;
21239;SDS011;10778;48.962;9.018;2023-07-02T04:35:26;9.02;;;4.88;;
21239;SDS011;10778;48.962;9.018;2023-07-02T04:37:52;9.60;;;4.93;;
21239;SDS011;10778;48.962;9.018;2023-07-02T04:40:18;7.00;;;4.53;;
21239;SDS011;10778;48.962;9.018;2023-07-02T04:42:44;26.33;;;7.00;;
21239;SDS011;10778;48.962;9.018;2023-07-02T04:45:14;16.67;;;8.88;;
21239;SDS011;10778;48.962;9.018;2023-07-02T04:47:44;12.70;;;5.55;;
21239;SDS011;10778;48.962;9.018;2023-07-02T04:50:11;8.50;;;4.35;;
21239;SDS011;10778;48.962;9.018;2023-07-02T04:52:39;10.90;;;4.63;;
21239;SDS011;10778;48.962;9.018;2023-07-02T04:55:05;9.80;;;4.30;;
21239;SDS011;10778;48.962;9.018;2023-07-02T04:57:32;9.73;;;4.40;;
21239;SDS011;10778;48.962;9.018;2023-07-02T04:59:58;11.15;;;4.57;;
21239;SDS011;10778;48.962;9.018;2023-07-02T05:02:24;10.18;;;4.88;;
21239;SDS011;10778;48.962;9.018;2023-07-02T05:04:50;8.80;;;4.07;;
21239;SDS011;10778;48.962;9.018;2023-07-02T05:07:16;11.60;;;4.30;;
21239;SDS011;10778;48.962;9.018;2023-07-02T05:09:42;6.88;;;4.10;;
21239;SDS011;10778;48.962;9.018;2023-07-02T05:12:08;9.70;;;4.32;;
21239;SDS011;10778;48.962;9.018;2023-07-02T05:14:35;6.97;;;4.10;;
21239;SDS011;10778;48.962;9.018;2023-07-02T05:17:01;7.13;;;4.22;;
21239;SDS011;10778;48.962;9.018;2023-07-02T05:19:26;8.13;;;4.60;;
21239;SDS011;10778;48.962;9.018;2023-07-02T05:21:52;10.65;;;4.15;;
21239;SDS011;10778;48.962;9.018;2023-07-02T05:24:18;9.23;;;4.82;;
21239;SDS011;10778;48.962;9.018;2023-07-02T05:26:44;10.23;;;4.78;;
21239;SDS011;10778;48.962;9.018;2023-07-02T05:29:10;13.55;;;4.90;;
21239;SDS011;10778;48.962;9.018;2023-07-02T05:31:36;8.35;;;4.68;;
21239;SDS011;10778;48.962;9.018;2023-07-02T05:34:02;10.00;;;5.10;;
21239;SDS011;10778;48.962;9.018;2023-07-02T05:36:28;10.32;;;5.15;;
21239;SDS011;10778;48.962;9.018;2023-07-02T05:38:54;12.30;;;4.80;;
21239;SDS011;10778;48.962;9.018;2023-07-02T05:41:20;11.95;;;4.72;;
21239;SDS011;10778;48.962;9.018;2023-07-02T05:43:47;8.10;;;5.10;;
21239;SDS011;10778;48.962;9.018;2023-07-02T05:46:13;10.50;;;4.75;;
21239;SDS011;10778;48.962;9.018;2023-07-02T05:48:41;12.23;;;5.43;;
21239;SDS011;10778;48.962;9.018;2023-07-02T05:51:07;9.32;;;5.20;;
21239;SDS011;10778;48.962;9.018;2023-07-02T05:53:34;13.57;;;4.93;;
21239;SDS011;10778;48.962;9.018;2023-07-02T05:56:00;10.68;;;5.40;;
21239;SDS011;10778;48.962;9.018;2023-07-02T05:58:26;12.20;;;6.03;;
21239;SDS011;10778;48.962;9.018;2023-07-02T06:00:52;14.43;;;5.57;;
21239;SDS011;10778;48.962;9.018;2023-07-02T06:03:18;11.63;;;6.07;;
21239;SDS011;10778;48.962;9.018;2023-07-02T06:05:47;11.38;;;5.57;;
21239;SDS011;10778;48.962;9.018;2023-07-02T06:08:17;11.35;;;5.63;;
21239;SDS011;10778;48.962;9.018;2023-07-02T06:10:45;10.95;;;5.55;;
21239;SDS011;10778;48.962;9.018;2023-07-02T06:13:12;10.93;;;5.60;;
21239;SDS011;10778;48.962;9.018;2023-07-02T06:15:39;12.73;;;6.70;;
21239;SDS011;10778;48.962;9.018;2023-07-02T06:18:05;10.35;;;6.05;;
21239;SDS011;10778;48.962;9.018;2023-07-02T06:20:31;13.93;;;5.85;;
21239;SDS011;10778;48.962;9.018;2023-07-02T06:22:57;14.20;;;6.47;;
21239;SDS011;10778;48.962;9.018;2023-07-02T06:25:23;12.30;;;6.15;;
21239;SDS011;10778;48.962;9.018;2023-07-02T06:27:49;14.50;;;6.72;;
21239;SDS011;10778;48.962;9.018;2023-07-02T06:30:15;12.65;;;6.53;;
21239;SDS011;10778;48.962;9.018;2023-07-02T06:32:41;11.02;;;6.57;;
21239;SDS011;10778;48.962;9.018;2023-07-02T06:35:08;14.38;;;7.32;;
21239;SDS011;10778;48.962;9.018;2023-07-02T06:37:34;12.55;;;7.18;;
21239;SDS011;10778;48.962;9.018;2023-07-02T06:40:00;14.65;;;7.78;;
21239;SDS011;10778;48.962;9.018;2023-07-02T06:42:26;13.80;;;7.50;;
21239;SDS011;10778;48.962;9.018;2023-07-02T06:44:52;12.68;;;7.20;;
21239;SDS011;10778;48.962;9.018;2023-07-02T06:47:18;14.05;;;7.15;;
21239;SDS011;10778;48.962;9.018;2023-07-02T06:49:44;15.80;;;7.65;;
21239;SDS011;10778;48.962;9.018;2023-07-02T06:52:10;13.10;;;7.13;;
21239;SDS011;10778;48.962;9.018;2023-07-02T06:54:36;14.57;;;7.55;;
21239;SDS011;10778;48.962;9.018;2023-07-02T06:57:02;16.60;;;7.13;;
21239;SDS011;10778;48.962;9.018;2023-07-02T06:59:28;11.77;;;6.53;;
21239;SDS011;10778;48.962;9.018;2023-07-02T07:01:54;10.95;;;6.43;;
21239;SDS011;10778;48.962;9.018;2023-07-02T07:04:20;13.02;;;6.45;;
21239;SDS011;10778;48.962;9.018;2023-07-02T07:06:46;12.82;;;6.10;;
21239;SDS011;10778;48.962;9.018;2023-07-02T07:09:12;11.75;;;5.90;;
21239;SDS011;10778;48.962;9.018;2023-07-02T07:11:38;11.50;;;6.47;;
21239;SDS011;10778;48.962;9.018;2023-07-02T07:14:04;13.02;;;6.55;;
21239;SDS011;10778;48.962;9.018;2023-07-02T07:16:30;10.55;;;6.25;;
21239;SDS011;10778;48.962;9.018;2023-07-02T07:18:56;12.32;;;7.13;;
21239;SDS011;10778;48.962;9.018;2023-07-02T07:21:21;13.25;;;7.03;;
21239;SDS011;10778;48.962;9.018;2023-07-02T07:23:48;13.95;;;7.38;;
21239;SDS011;10778;48.962;9.018;2023-07-02T07:26:14;14.73;;;8.02;;
21239;SDS011;10778;48.962;9.018;2023-07-02T07:28:40;16.02;;;7.57;;
21239;SDS011;10778;48.962;9.018;2023-07-02T07:31:06;13.10;;;7.50;;
21239;SDS011;10778;48.962;9.018;2023-07-02T07:33:32;13.70;;;8.05;;
21239;SDS011;10778;48.962;9.018;2023-07-02T07:35:58;13.68;;;8.52;;
21239;SDS011;10778;48.962;9.018;2023-07-02T07:38:25;16.63;;;8.70;;
21239;SDS011;10778;48.962;9.018;2023-07-02T07:40:51;16.70;;;8.75;;
21239;SDS011;10778;48.962;9.018;2023-07-02T07:43:17;15.80;;;8.73;;
21239;SDS011;10778;48.962;9.018;2023-07-02T07:45:43;14.27;;;9.20;;
21239;SDS011;10778;48.962;9.018;2023-07-02T07:48:09;18.33;;;9.57;;
21239;SDS011;10778;48.962;9.018;2023-07-02T07:50:35;17.98;;;10.38;;
21239;SDS011;10778;48.962;9.018;2023-07-02T07:53:01;19.10;;;9.93;;
21239;SDS011;10778;48.962;9.018;2023-07-02T07:55:27;17.00;;;9.65;;
21239;SDS011;10778;48.962;9.018;2023-07-02T07:57:53;19.08;;;10.55;;
21239;SDS011;10778;48.962;9.018;2023-07-02T08:00:19;16.90;;;10.40;;
21239;SDS011;10778;48.962;9.018;2023-07-02T08:02:46;19.88;;;11.77;;
21239;SDS011;10778;48.962;9.018;2023-07-02T08:05:15;17.85;;;11.13;;
21239;SDS011;10778;48.962;9.018;2023-07-02T08:07:41;18.88;;;11.30;;
21239;SDS011;10778;48.962;9.018;2023-07-02T08:10:07;22.20;;;12.60;;
21239;SDS011;10778;48.962;9.018;2023-07-02T08:12:36;26.02;;;13.52;;
21239;SDS011;10778;48.962;9.018;2023-07-02T08:15:02;20.98;;;12.57;;
21239;SDS011;10778;48.962;9.018;2023-07-02T08:17:28;21.33;;;13.02;;
21239;SDS011;10778;48.962;9.018;2023-07-02T08:19:56;24.40;;;13.52;;
21239;SDS011;10778;48.962;9.018;2023-07-02T08:22:23;26.13;;;15.07;;
21239;SDS011;10778;48.962;9.018;2023-07-02T08:24:49;25.55;;;15.18;;
21239;SDS011;10778;48.962;9.018;2023-07-02T08:27:15;25.13;;;14.90;;
21239;SDS011;10778;48.962;9.018;2023-07-02T08:29:47;26.48;;;16.23;;
21239;SDS011;10778;48.962;9.018;2023-07-02T08:32:14;24.92;;;15.65;;
21239;SDS011;10778;48.962;9.018;2023-07-02T08:34:42;26.95;;;15.65;;
21239;SDS011;10778;48.962;9.018;2023-07-02T08:37:08;28.33;;;17.08;;
21239;SDS011;10778;48.962;9.018;2023-07-02T08:39:34;29.92;;;17.55;;
21239;SDS011;10778;48.962;9.018;2023-07-02T08:42:01;28.45;;;17.20;;
21239;SDS011;10778;48.962;9.018;2023-07-02T08:44:27;30.30;;;17.00;;
21239;SDS011;10778;48.962;9.018;2023-07-02T08:46:53;26.42;;;16.55;;
21239;SDS011;10778;48.962;9.018;2023-07-02T08:49:22;30.73;;;17.58;;
21239;SDS011;10778;48.962;9.018;2023-07-02T08:51:48;29.65;;;17.60;;
21239;SDS011;10778;48.962;9.018;2023-07-02T08:54:14;32.38;;;18.52;;
21239;SDS011;10778;48.962;9.018;2023-07-02T08:56:43;29.38;;;17.42;;
21239;SDS011;10778;48.962;9.018;2023-07-02T08:59:10;28.55;;;17.52;;
21239;SDS011;10778;48.962;9.018;2023-07-02T09:01:49;29.52;;;17.52;;
21239;SDS011;10778;48.962;9.018;2023-07-02T09:06:43;28.33;;;17.55;;
21239;SDS011;10778;48.962;9.018;2023-07-02T09:09:09;28.85;;;18.85;;
21239;SDS011;10778;48.962;9.018;2023-07-02T09:11:35;32.45;;;19.17;;
21239;SDS011;10778;48.962;9.018;2023-07-02T09:14:12;33.97;;;18.90;;
21239;SDS011;10778;48.962;9.018;2023-07-02T09:17:00;33.08;;;19.00;;
21239;SDS011;10778;48.962;9.018;2023-07-02T09:19:29;32.65;;;19.05;;
21239;SDS011;10778;48.962;9.018;2023-07-02T09:21:56;34.10;;;19.80;;
21239;SDS011;10778;48.962;9.018;2023-07-02T09:24:25;32.75;;;19.73;;
21239;SDS011;10778;48.962;9.018;2023-07-02T09:26:53;31.33;;;19.77;;
21239;SDS011;10778;48.962;9.018;2023-07-02T09:29:31;32.40;;;19.50;;
21239;SDS011;10778;48.962;9.018;2023-07-02T09:31:59;33.28;;;19.92;;
21239;SDS011;10778;48.962;9.018;2023-07-02T09:34:35;33.05;;;19.55;;
21239;SDS011;10778;48.962;9.018;2023-07-02T09:37:03;30.05;;;18.35;;
21239;SDS011;10778;48.962;9.018;2023-07-02T09:39:31;32.08;;;19.05;;
21239;SDS011;10778;48.962;9.018;2023-07-02T09:41:59;33.45;;;19.75;;
21239;SDS011;10778;48.962;9.018;2023-07-02T09:44:27;32.63;;;19.73;;
21239;SDS011;10778;48.962;9.018;2023-07-02T09:46:56;31.63;;;18.55;;
21239;SDS011;10778;48.962;9.018;2023-07-02T09:49:26;27.60;;;17.67;;
21239;SDS011;10778;48.962;9.018;2023-07-02T09:51:53;30.55;;;18.38;;
21239;SDS011;10778;48.962;9.018;2023-07-02T09:54:19;28.98;;;18.50;;
21239;SDS011;10778;48.962;9.018;2023-07-02T09:56:46;26.75;;;17.73;;
21239;SDS011;10778;48.962;9.018;2023-07-02T09:59:13;30.65;;;17.55;;
21239;SDS011;10778;48.962;9.018;2023-07-02T10:01:40;29.02;;;17.92;;
21239;SDS011;10778;48.962;9.018;2023-07-02T10:04:15;30.75;;;18.80;;
21239;SDS011;10778;48.962;9.018;2023-07-02T10:06:50;30.25;;;18.58;;
21239;SDS011;10778;48.962;9.018;2023-07-02T10:09:18;29.00;;;17.45;;
21239;SDS011;10778;48.962;9.018;2023-07-02T10:11:45;33.17;;;17.33;;
21239;SDS011;10778;48.962;9.018;2023-07-02T10:14:12;27.73;;;17.02;;
21239;SDS011;10778;48.962;9.018;2023-07-02T10:16:54;30.77;;;17.45;;
21239;SDS011;10778;48.962;9.018;2023-07-02T10:19:21;29.27;;;17.42;;
21239;SDS011;10778;48.962;9.018;2023-07-02T10:22:00;29.98;;;17.95;;
21239;SDS011;10778;48.962;9.018;2023-07-02T10:24:27;27.67;;;17.00;;
21239;SDS011;10778;48.962;9.018;2023-07-02T10:26:54;27.70;;;16.77;;
21239;SDS011;10778;48.962;9.018;2023-07-02T10:29:25;27.50;;;16.73;;
21239;SDS011;10778;48.962;9.018;2023-07-02T10:31:53;25.45;;;16.40;;
21239;SDS011;10778;48.962;9.018;2023-07-02T10:34:33;24.63;;;16.45;;
21239;SDS011;10778;48.962;9.018;2023-07-02T10:37:03;27.27;;;16.92;;
21239;SDS011;10778;48.962;9.018;2023-07-02T10:39:30;27.25;;;16.50;;
21239;SDS011;10778;48.962;9.018;2023-07-02T10:42:06;27.48;;;17.33;;
21239;SDS011;10778;48.962;9.018;2023-07-02T10:44:33;27.13;;;16.60;;
21239;SDS011;10778;48.962;9.018;2023-07-02T10:47:00;25.55;;;16.20;;
21239;SDS011;10778;48.962;9.018;2023-07-02T10:49:30;25.00;;;16.02;;
21239;SDS011;10778;48.962;9.018;2023-07-02T10:52:00;24.45;;;16.55;;
21239;SDS011;10778;48.962;9.018;2023-07-02T10:54:38;27.98;;;17.00;;
21239;SDS011;10778;48.962;9.018;2023-07-02T10:57:08;26.27;;;16.38;;
21239;SDS011;10778;48.962;9.018;2023-07-02T10:59:34;25.25;;;16.67;;
21239;SDS011;10778;48.962;9.018;2023-07-02T11:02:01;27.25;;;17.80;;
21239;SDS011;10778;48.962;9.018;2023-07-02T11:04:27;26.02;;;16.92;;
21239;SDS011;10778;48.962;9.018;2023-07-02T11:06:54;27.15;;;16.70;;
21239;SDS011;10778;48.962;9.018;2023-07-02T11:09:20;27.50;;;17.60;;
21239;SDS011;10778;48.962;9.018;2023-07-02T11:11:54;25.10;;;16.27;;
21239;SDS011;10778;48.962;9.018;2023-07-02T11:14:28;24.40;;;16.60;;
21239;SDS011;10778;48.962;9.018;2023-07-02T11:16:56;28.08;;;16.95;;
21239;SDS011;10778;48.962;9.018;2023-07-02T11:19:23;24.23;;;15.27;;
21239;SDS011;10778;48.962;9.018;2023-07-02T11:21:52;25.55;;;16.55;;
21239;SDS011;10778;48.962;9.018;2023-07-02T11:24:31;26.15;;;16.35;;
21239;SDS011;10778;48.962;9.018;2023-07-02T11:26:59;27.05;;;16.90;;
21239;SDS011;10778;48.962;9.018;2023-07-02T11:29:27;25.63;;;16.55;;
21239;SDS011;10778;48.962;9.018;2023-07-02T11:31:54;25.35;;;16.08;;
21239;SDS011;10778;48.962;9.018;2023-07-02T11:34:21;24.38;;;16.50;;
21239;SDS011;10778;48.962;9.018;2023-07-02T11:36:47;24.15;;;16.20;;
21239;SDS011;10778;48.962;9.018;2023-07-02T11:39:14;24.15;;;16.42;;
21239;SDS011;10778;48.962;9.018;2023-07-02T11:41:43;25.15;;;16.02;;
21239;SDS011;10778;48.962;9.018;2023-07-02T11:44:10;23.10;;;15.68;;
21239;SDS011;10778;48.962;9.018;2023-07-02T11:46:36;26.65;;;15.57;;
21239;SDS011;10778;48.962;9.018;2023-07-02T11:49:02;24.52;;;15.55;;
21239;SDS011;10778;48.962;9.018;2023-07-02T11:51:30;26.40;;;16.05;;
21239;SDS011;10778;48.962;9.018;2023-07-02T11:53:57;29.08;;;16.50;;
21239;SDS011;10778;48.962;9.018;2023-07-02T11:56:23;25.00;;;15.98;;
21239;SDS011;10778;48.962;9.018;2023-07-02T11:58:49;27.67;;;16.45;;
21239;SDS011;10778;48.962;9.018;2023-07-02T12:01:15;27.30;;;16.70;;
21239;SDS011;10778;48.962;9.018;2023-07-02T12:03:41;26.45;;;16.60;;
21239;SDS011;10778;48.962;9.018;2023-07-02T12:06:09;26.77;;;16.77;;
21239;SDS011;10778;48.962;9.018;2023-07-02T12:08:35;27.48;;;16.70;;
21239;SDS011;10778;48.962;9.018;2023-07-02T12:11:01;29.75;;;17.35;;
21239;SDS011;10778;48.962;9.018;2023-07-02T12:13:27;25.13;;;16.55;;
21239;SDS011;10778;48.962;9.018;2023-07-02T12:15:53;28.13;;;16.77;;
21239;SDS011;10778;48.962;9.018;2023-07-02T12:18:19;28.70;;;16.70;;
21239;SDS011;10778;48.962;9.018;2023-07-02T12:20:45;25.05;;;17.23;;
21239;SDS011;10778;48.962;9.018;2023-07-02T12:23:11;29.83;;;17.67;;
21239;SDS011;10778;48.962;9.018;2023-07-02T12:25:37;28.58;;;16.65;;
21239;SDS011;10778;48.962;9.018;2023-07-02T12:28:04;25.20;;;16.55;;
21239;SDS011;10778;48.962;9.018;2023-07-02T12:30:31;24.60;;;16.85;;
21239;SDS011;10778;48.962;9.018;2023-07-02T12:32:57;27.88;;;17.55;;
21239;SDS011;10778;48.962;9.018;2023-07-02T12:35:23;26.42;;;16.30;;
21239;SDS011;10778;48.962;9.018;2023-07-02T12:37:50;25.08;;;16.42;;
21239;SDS011;10778;48.962;9.018;2023-07-02T12:40:17;25.55;;;16.73;;
21239;SDS011;10778;48.962;9.018;2023-07-02T12:42:44;25.05;;;16.70;;
21239;SDS011;10778;48.962;9.018;2023-07-02T12:45:11;24.60;;;16.85;;
21239;SDS011;10778;48.962;9.018;2023-07-02T12:47:38;25.02;;;16.10;;
21239;SDS011;10778;48.962;9.018;2023-07-02T12:50:05;28.58;;;17.02;;
21239;SDS011;10778;48.962;9.018;2023-07-02T12:52:32;24.13;;;16.77;;
21239;SDS011;10778;48.962;9.018;2023-07-02T12:54:58;24.45;;;16.48;;
21239;SDS011;10778;48.962;9.018;2023-07-02T12:57:25;23.55;;;15.00;;
21239;SDS011;10778;48.962;9.018;2023-07-02T12:59:55;21.65;;;15.07;;
21239;SDS011;10778;48.962;9.018;2023-07-02T13:02:22;22.23;;;15.48;;
21239;SDS011;10778;48.962;9.018;2023-07-02T13:04:49;22.88;;;15.45;;
21239;SDS011;10778;48.962;9.018;2023-07-02T13:07:15;23.05;;;14.82;;
21239;SDS011;10778;48.962;9.018;2023-07-02T13:09:42;21.77;;;14.80;;
21239;SDS011;10778;48.962;9.018;2023-07-02T13:12:08;21.85;;;15.00;;
21239;SDS011;10778;48.962;9.018;2023-07-02T13:14:35;24.58;;;15.90;;
21239;SDS011;10778;48.962;9.018;2023-07-02T13:17:01;22.88;;;14.88;;
21239;SDS011;10778;48.962;9.018;2023-07-02T13:19:30;20.88;;;14.82;;
21239;SDS011;10778;48.962;9.018;2023-07-02T13:21:57;24.52;;;15.45;;
21239;SDS011;10778;48.962;9.018;2023-07-02T13:24:23;21.60;;;15.45;;
21239;SDS011;10778;48.962;9.018;2023-07-02T13:26:49;24.55;;;15.60;;
21239;SDS011;10778;48.962;9.018;2023-07-02T13:29:15;22.77;;;15.00;;
21239;SDS011;10778;48.962;9.018;2023-07-02T13:31:42;23.95;;;15.63;;
21239;SDS011;10778;48.962;9.018;2023-07-02T13:34:08;20.15;;;14.27;;
21239;SDS011;10778;48.962;9.018;2023-07-02T13:36:33;21.40;;;14.40;;
21239;SDS011;10778;48.962;9.018;2023-07-02T13:39:00;19.95;;;13.80;;
21239;SDS011;10778;48.962;9.018;2023-07-02T13:41:26;19.48;;;14.02;;
21239;SDS011;10778;48.962;9.018;2023-07-02T13:43:52;20.73;;;14.55;;
21239;SDS011;10778;48.962;9.018;2023-07-02T13:46:18;22.58;;;14.57;;
21239;SDS011;10778;48.962;9.018;2023-07-02T13:48:44;22.00;;;14.85;;
21239;SDS011;10778;48.962;9.018;2023-07-02T13:51:10;22.33;;;14.13;;
21239;SDS011;10778;48.962;9.018;2023-07-02T13:53:36;20.65;;;14.27;;
21239;SDS011;10778;48.962;9.018;2023-07-02T13:56:02;22.17;;;14.80;;
21239;SDS011;10778;48.962;9.018;2023-07-02T14:01:10;20.75;;;14.30;;
21239;SDS011;10778;48.962;9.018;2023-07-02T14:03:36;22.48;;;14.40;;
21239;SDS011;10778;48.962;9.018;2023-07-02T14:06:02;24.35;;;14.63;;
21239;SDS011;10778;48.962;9.018;2023-07-02T14:08:28;22.58;;;15.52;;
21239;SDS011;10778;48.962;9.018;2023-07-02T14:10:54;19.73;;;13.75;;
21239;SDS011;10778;48.962;9.018;2023-07-02T14:13:20;20.67;;;13.57;;
21239;SDS011;10778;48.962;9.018;2023-07-02T14:15:46;21.77;;;15.15;;
21239;SDS011;10778;48.962;9.018;2023-07-02T14:18:12;23.80;;;15.70;;
21239;SDS011;10778;48.962;9.018;2023-07-02T14:20:38;25.45;;;14.30;;
21239;SDS011;10778;48.962;9.018;2023-07-02T14:23:04;22.00;;;15.07;;
21239;SDS011;10778;48.962;9.018;2023-07-02T14:25:30;20.95;;;14.38;;
21239;SDS011;10778;48.962;9.018;2023-07-02T14:27:56;23.38;;;15.48;;
21239;SDS011;10778;48.962;9.018;2023-07-02T14:30:22;23.17;;;15.00;;
21239;SDS011;10778;48.962;9.018;2023-07-02T14:32:48;22.38;;;14.57;;
21239;SDS011;10778;48.962;9.018;2023-07-02T14:35:15;22.52;;;14.35;;
21239;SDS011;10778;48.962;9.018;2023-07-02T14:37:41;21.73;;;14.43;;
21239;SDS011;10778;48.962;9.018;2023-07-02T14:40:07;23.83;;;14.40;;
21239;SDS011;10778;48.962;9.018;2023-07-02T14:42:34;23.35;;;14.73;;